This is the latest recevied weather packets stored in our database for station/object HA9OZD-18. If no packets are shown the sender has not sent any weather packets the latest 10 day(s).
| Time | Temp. | Humidity | Pressure | Rain* | Wind** | Luminosity | Snow |
|---|---|---|---|---|---|---|---|
| 1787849118 | 18.33° C | 47% | 1019.8 hPa | - | - | - | - |
| 1787845517 | 19.44° C | 45% | 1019.9 hPa | - | - | - | - |
| 1787841917 | 20° C | 46% | 1019.7 hPa | - | - | - | - |
| 1787838317 | 20.56° C | 44% | 1019.7 hPa | - | - | - | - |
| 1787834717 | 20.56° C | 44% | 1019.8 hPa | - | - | - | - |
| 1787831117 | 21.11° C | 45% | 1019.9 hPa | - | - | - | - |
| 1787827516 | 20.56° C | 47% | 1020.1 hPa | - | - | - | - |
| 1787823916 | 20° C | 48% | 1019.9 hPa | - | - | - | - |
| 1787820316 | 19.44° C | 52% | 1020 hPa | - | - | - | - |
| 1787816715 | 17.78° C | 55% | 1019.7 hPa | - | - | - | - |
| 1787813115 | 16.11° C | 57% | 1019.3 hPa | - | - | - | - |
| 1787809515 | 14.44° C | 62% | 1019.3 hPa | - | - | - | - |
| 1787805915 | 12.78° C | 69% | 1019.1 hPa | - | - | - | - |
| 1787802314 | 12.22° C | 71% | 1019 hPa | - | - | - | - |
| 1787798714 | 12.22° C | 72% | 1018.7 hPa | - | - | - | - |
| 1787795114 | 12.22° C | 72% | 1018.9 hPa | - | - | - | - |
| 1787791513 | 12.22° C | 73% | 1019 hPa | - | - | - | - |
| 1787787913 | 12.78° C | 76% | 1019 hPa | - | - | - | - |
| 1787784419 | 12.78° C | 80% | 1019 hPa | - | - | - | - |
| 1787784313 | 12.78° C | 80% | 1019 hPa | - | - | - | - |
| 1787780713 | 12.78° C | 81% | 1019 hPa | - | - | - | - |
| 1787777112 | 12.78° C | 84% | 1018.9 hPa | - | - | - | - |
| 1787773512 | 13.33° C | 82% | 1018.8 hPa | - | - | - | - |
| 1787769909 | 14.44° C | 76% | 1018.7 hPa | - | - | - | - |
| 1787766308 | 15° C | 68% | 1018.6 hPa | - | - | - | - |
* Rain since midnight (hover to see other rain measurements)
** Current wind speed in m/s (hover to see current wind gust speed)